Accueil
METAR-TAF:

METAR-TAF

Aéroports :

Oxford, Angleterre

Aéroport d'Oxford Kidlington

latitude: 51-50-13N, longitude: 1-19-12W, altitude: 82 m

Observation

Le bulletin a été fait il y a 36 minutes, à 06:20 UTC
Vent 9 kt de sud
Température 14°C
Humidité 88%
Pression 1008 hPa
Visibilité 10 km ou plus
pas de nuages en-dessous de 1500 mètres et pas de cumulonimbus.

METAR: EGTK 220620Z 18009KT CAVOK 14/12 Q1008

Heure: 07:56 (06:56 UTC)

Prévision

Le bulletin a été fait il y a 1 heure et 24 minutes, à 05:32 UTC
Prévision valable du 22 à 06 UTC au 22 à 15 UTC
Vent 6 kt de sud
Visibilité 10 km ou plus
Quelques nuages à une hauteur de 2500 ft
Evoluant progressivement
du 22 à 06 UTC au 22 à 09 UTC
Vent 10 kt de ouest/sud-ouest
Probabilité 30% :
Temporairement
du 22 à 11 UTC au 22 à 14 UTC
Visibilité: 8000 m
pluie faible

TAF: EGTK 220532Z 2206/2215 18006KT 9999 FEW025 BECMG 2206/2209 24010KT PROB30 TEMPO 2211/2214 8000 -RA

Observations et prévisions météorologiques de plus de 4000 aéroports (messages METAR et TAF).

Les stations disponibles sont représentées par des disques jaunes et rouges sur la carte.

Passer la souris dessus pour voir le nom de la station.

Cliquer dessus pour voir les observations et prévisions météorologiques.

Pour changer de carte: cliquez sur les boutons verts avec une croix noire pour zoomer, sur le bouton vert avec un tiret pour effectuer un zoom arrière, ou sur les flèches vertes pour les cartes adjacentes.


METAR-TAF: